Rionegro, Colombia

10:06 PM COT on October 22, 2014 (GMT -0500)
Jose Maria Cordova | Change Station
CLOSE
Current Station
Airport
Location: Rionegro,
Elevation: 7028 ft
Nearby Weather Stations

Elev 7028 ft 6.17 °N, 75.43 °W | Updated 6 minutes ago

Fog
Fog
59 °F
Feels Like 59 °F
N
2
Wind Variable Wind from Variable

Today
High -- | Low -- °F
--% Chance of Precip.
Yesterday
High -- | Low -- °F
Precip. -- in
5:47 AM 5:44 PM
Waning Crescent, 1% visible
Pressure 30.37 in
Visibility 5.0 miles
Clouds Scattered Clouds 1200 ft
Scattered Clouds 8000 ft
Dew Point 57 °F
Humidity 94%
Rainfall 0.00 in
Snow Depth Not available.
UV 0 out of 12
Pollen Not available.
Air Quality Not available.
Flu Activity Not available.
METAR SKRG 230300Z VRB02KT 8000 VCFG SCT012 SCT080 15/14 A3037

More Conditions Fewer Conditions

Pressure 30.37 in
Visibility 5.0 miles
Clouds Scattered Clouds 1200 ft
Scattered Clouds 8000 ft
Dew Point 57 °F
Humidity 94%
Rainfall 0.00 in
Snow Depth Not available.
UV 0 out of 12
Pollen Not available.
Air Quality Not available.
Flu Activity Not available.
METAR SKRG 230300Z VRB02KT 8000 VCFG SCT012 SCT080 15/14 A3037

More Conditions Fewer Conditions

10-Day Weather Forecast

Almanac

Astronomy

Oct. 22, 2014 Rise Set
Actual Time 5:47 AM COT 5:44 PM COT
Civil Twilight 5:26 AM COT 6:05 PM COT
Nautical Twilight 5:01 AM COT 6:30 PM COT
Astronomical Twilight 4:37 AM COT 6:54 PM COT
Moon 4:42 AM COT (10/22) 4:58 PM COT (10/22)
Length of Visible Light 12h 39m
Length of Day
11h 56m
Tomorrow will be 0m 18s shorter.
Waning Crescent, 1% of the Moon is Illuminated
Today
Waning Crescent
Oct 23
New
Oct 30
First Quarter
Nov 6
Full
Nov 14
Last Quarter

Today's Extremes

Country Highs Country Lows

Community

WunderPhotos

Upload Photos

1,764,121 photos uploaded!

Nearby

Snow Depth

Not available.

Earthquake Activity

City Distance Mag. Time & Date
No recent earthquake activity has been reported nearby.
Minimum magnitude displayed is 2.5.

Coastal Water Temperatures

Place Temperature
No Stations Reporting

Nearby Weather Stations